createdAt,value
2019-05-22T00:00:29.956Z,24.73
2019-05-22T00:03:00.763Z,24.60
2019-05-22T00:05:33.916Z,24.87
2019-05-22T00:08:04.325Z,25.30
2019-05-22T00:10:34.336Z,25.20
2019-05-22T00:13:05.117Z,25.10
2019-05-22T00:15:38.413Z,24.50
2019-05-22T00:18:07.494Z,25.57
2019-05-22T00:20:36.019Z,24.97
2019-05-22T00:23:11.030Z,24.70
2019-05-22T00:25:40.818Z,23.83
2019-05-22T00:28:10.430Z,24.67
2019-05-22T00:30:41.067Z,24.00
2019-05-22T00:33:12.205Z,24.80
2019-05-22T00:35:42.509Z,25.33
2019-05-22T00:38:11.647Z,24.07
2019-05-22T00:40:42.846Z,22.30
2019-05-22T00:43:14.579Z,21.97
2019-05-22T00:45:45.704Z,21.10
2019-05-22T00:48:16.410Z,21.10
2019-05-22T00:51:04.392Z,20.90
2019-05-22T00:53:38.310Z,20.17
2019-05-22T00:56:26.432Z,18.50
2019-05-22T00:58:57.881Z,19.37
2019-05-22T01:01:32.244Z,19.30
2019-05-22T01:04:02.312Z,17.90
2019-05-22T01:06:32.397Z,17.97
2019-05-22T01:09:04.321Z,16.30
2019-05-22T01:11:34.014Z,17.33
2019-05-22T01:14:04.261Z,16.90
2019-05-22T01:16:33.105Z,16.47
2019-05-22T01:19:01.713Z,16.10
2019-05-22T01:21:33.191Z,16.43
2019-05-22T01:24:03.490Z,15.33
2019-05-22T01:26:33.557Z,15.37
2019-05-22T01:29:02.599Z,15.20
2019-05-22T01:31:32.805Z,13.80
2019-05-22T01:34:05.423Z,14.30
2019-05-22T01:36:35.585Z,14.07
2019-05-22T01:39:22.873Z,14.10
2019-05-22T01:41:53.316Z,13.50
2019-05-22T01:44:23.051Z,13.00
2019-05-22T01:46:53.729Z,14.53
2019-05-22T01:49:22.182Z,14.63
2019-05-22T01:51:50.962Z,14.20
2019-05-22T01:54:19.854Z,14.57
2019-05-22T01:56:48.627Z,13.10
2019-05-22T01:59:18.149Z,13.53
2019-05-22T02:01:48.418Z,13.03
2019-05-22T02:04:18.575Z,12.47
2019-05-22T02:06:47.838Z,12.53
2019-05-22T02:09:23.969Z,12.70
2019-05-22T02:11:56.879Z,11.63
2019-05-22T02:14:25.494Z,11.23
2019-05-22T02:16:57.192Z,10.70
2019-05-22T02:19:26.119Z,10.93
2019-05-22T02:21:55.430Z,10.27
2019-05-22T02:24:23.877Z,9.27
2019-05-22T02:26:52.573Z,9.70
2019-05-22T02:29:22.099Z,9.00
2019-05-22T02:31:55.007Z,8.23
2019-05-22T02:34:21.460Z,8.03
2019-05-22T02:36:49.894Z,8.70
2019-05-22T02:39:25.801Z,8.30
2019-05-22T02:41:58.587Z,9.20
2019-05-22T02:44:28.763Z,7.67
2019-05-22T02:47:16.548Z,7.87
2019-05-22T02:49:29.983Z,7.80
2019-05-22T02:51:58.979Z,7.37
2019-05-22T02:54:31.471Z,7.43
2019-05-22T02:57:00.939Z,7.40
2019-05-22T02:59:31.209Z,7.27
2019-05-22T03:02:01.874Z,7.40
2019-05-22T03:04:48.267Z,6.97
2019-05-22T03:07:17.588Z,8.27
2019-05-22T03:09:46.827Z,8.03
2019-05-22T03:12:16.893Z,8.37
2019-05-22T03:14:46.857Z,8.00
2019-05-22T03:17:27.762Z,9.03
2019-05-22T03:19:57.773Z,9.70
2019-05-22T03:22:36.721Z,8.90
2019-05-22T03:25:09.827Z,9.80
2019-05-22T03:27:40.866Z,9.50
2019-05-22T03:30:27.179Z,9.37
2019-05-22T03:32:56.948Z,10.10
2019-05-22T03:35:27.899Z,9.77
2019-05-22T03:37:59.144Z,9.87
2019-05-22T03:40:29.722Z,9.63
2019-05-22T03:42:59.760Z,9.30
2019-05-22T03:45:29.354Z,9.73
2019-05-22T03:47:57.935Z,9.23
2019-05-22T03:50:28.406Z,9.80
2019-05-22T03:52:59.999Z,9.30
2019-05-22T03:55:28.506Z,9.33
2019-05-22T03:57:57.188Z,9.97
2019-05-22T04:00:27.223Z,9.57
2019-05-22T04:02:56.700Z,9.30
2019-05-22T04:05:26.348Z,9.40
2019-05-22T04:07:55.429Z,9.53
2019-05-22T04:10:23.949Z,10.03
2019-05-22T04:12:54.643Z,9.03
2019-05-22T04:15:23.649Z,9.57
2019-05-22T04:17:52.274Z,10.03
2019-05-22T04:20:21.662Z,10.70
2019-05-22T04:22:51.916Z,9.60
2019-05-22T04:25:20.355Z,10.10
2019-05-22T04:27:48.798Z,10.87
2019-05-22T04:30:18.388Z,10.50
2019-05-22T04:32:47.772Z,10.33
2019-05-22T04:35:18.977Z,11.43
2019-05-22T04:37:49.458Z,11.77
2019-05-22T04:40:27.221Z,12.70
2019-05-22T04:42:58.755Z,11.07
2019-05-22T04:45:28.379Z,10.70
2019-05-22T04:47:58.845Z,9.90
2019-05-22T04:50:28.912Z,9.70
2019-05-22T04:52:58.954Z,10.53
2019-05-22T04:55:29.299Z,10.63
2019-05-22T04:58:04.523Z,10.07
2019-05-22T05:00:33.942Z,9.83
2019-05-22T05:03:02.842Z,10.13
2019-05-22T05:05:35.789Z,9.90
2019-05-22T05:08:05.180Z,9.07
2019-05-22T05:10:34.246Z,10.07
2019-05-22T05:13:03.138Z,9.60
2019-05-22T05:15:31.658Z,7.97
2019-05-22T05:18:00.118Z,6.67
2019-05-22T05:20:28.634Z,6.40
2019-05-22T05:22:57.139Z,6.67
2019-05-22T05:25:25.929Z,6.57
2019-05-22T05:27:54.608Z,9.00
2019-05-22T05:30:26.342Z,9.27
2019-05-22T05:32:55.913Z,7.90
2019-05-22T05:35:25.048Z,7.33
2019-05-22T05:37:53.549Z,6.27
2019-05-22T05:40:39.305Z,5.90
2019-05-22T05:43:10.013Z,6.70
2019-05-22T05:45:41.044Z,6.73
2019-05-22T05:48:11.639Z,5.77
2019-05-22T05:50:43.146Z,10.70
2019-05-22T05:53:16.211Z,6.67
2019-05-22T05:56:07.240Z,5.30
2019-05-22T05:58:35.882Z,6.10
2019-05-22T06:01:15.055Z,5.77
2019-05-22T06:03:45.108Z,5.80
2019-05-22T06:06:23.743Z,7.30
2019-05-22T06:08:53.998Z,7.40
2019-05-22T06:11:34.301Z,7.17
2019-05-22T06:14:03.874Z,7.27
2019-05-22T06:16:50.920Z,7.80
2019-05-22T06:19:21.399Z,8.33
2019-05-22T06:21:50.927Z,7.70
2019-05-22T06:24:35.367Z,8.37
2019-05-22T06:27:15.639Z,7.40
2019-05-22T06:30:17.894Z,9.93
2019-05-22T06:33:13.285Z,8.63
2019-05-22T06:35:43.535Z,9.57
2019-05-22T06:38:17.774Z,10.47
2019-05-22T06:40:46.401Z,8.27
2019-05-22T06:43:20.593Z,9.33
2019-05-22T06:45:49.106Z,13.23
2019-05-22T06:48:17.539Z,7.17
2019-05-22T06:50:49.161Z,7.37
2019-05-22T06:53:16.310Z,6.60
2019-05-22T06:55:45.221Z,9.57
2019-05-22T06:58:13.722Z,8.10
2019-05-22T07:00:42.505Z,8.37
2019-05-22T07:03:13.555Z,6.33
2019-05-22T07:05:42.707Z,6.40
2019-05-22T07:08:12.447Z,7.20
2019-05-22T07:10:41.327Z,7.20
2019-05-22T07:13:10.893Z,6.57
2019-05-22T07:15:42.982Z,6.83
2019-05-22T07:18:13.656Z,7.00
2019-05-22T07:20:42.610Z,7.47
2019-05-22T07:23:15.849Z,6.83
2019-05-22T07:25:46.106Z,6.80
2019-05-22T07:28:17.067Z,6.30
2019-05-22T07:30:47.199Z,6.83
2019-05-22T07:33:16.072Z,6.83
2019-05-22T07:36:07.082Z,6.37
2019-05-22T07:38:15.529Z,6.50
2019-05-22T07:40:44.176Z,6.43
2019-05-22T07:43:13.191Z,6.73
2019-05-22T07:45:41.849Z,6.80
2019-05-22T07:48:10.581Z,6.03
2019-05-22T07:50:41.449Z,6.00
2019-05-22T07:53:10.285Z,6.20
2019-05-22T07:55:39.296Z,6.27
2019-05-22T07:58:13.133Z,6.00
2019-05-22T08:00:45.360Z,6.50
2019-05-22T08:03:14.116Z,6.13
2019-05-22T08:05:45.804Z,5.57
2019-05-22T08:08:18.623Z,6.33
2019-05-22T08:10:46.701Z,5.43
2019-05-22T08:13:15.695Z,6.07
2019-05-22T08:15:47.616Z,6.40
2019-05-22T08:18:16.570Z,6.17
2019-05-22T08:20:45.445Z,5.37
2019-05-22T08:23:13.965Z,5.87
2019-05-22T08:25:42.413Z,5.97
2019-05-22T08:28:11.934Z,6.67
2019-05-22T08:30:40.618Z,6.43
2019-05-22T08:33:11.809Z,12.47
2019-05-22T08:35:40.331Z,22.57
2019-05-22T08:38:09.923Z,44.23
2019-05-22T08:40:39.269Z,34.50
2019-05-22T08:43:07.964Z,5.90
2019-05-22T08:45:37.421Z,69.33
2019-05-22T08:48:07.181Z,13.90
2019-05-22T08:50:37.427Z,19.93
2019-05-22T08:53:06.967Z,197.57
2019-05-22T08:55:36.006Z,48.83
2019-05-22T08:58:05.764Z,53.40
2019-05-22T09:00:34.699Z,48.77
2019-05-22T09:03:03.924Z,252.27
2019-05-22T09:05:32.606Z,55.73
2019-05-22T09:08:01.346Z,678.37
2019-05-22T09:10:29.961Z,926.33
2019-05-22T09:12:58.420Z,433.40
2019-05-22T09:15:28.528Z,116.67
2019-05-22T09:17:57.067Z,380.03
2019-05-22T09:20:25.576Z,90.47
2019-05-22T09:22:54.662Z,23.90
2019-05-22T09:25:23.289Z,143.70
2019-05-22T09:27:52.402Z,174.73
2019-05-22T09:30:20.921Z,692.37
2019-05-22T09:32:49.367Z,155.83
2019-05-22T09:35:19.187Z,45.20
2019-05-22T09:37:47.911Z,38.97
2019-05-22T09:40:16.814Z,36.97
2019-05-22T09:42:45.253Z,13.23
2019-05-22T09:45:14.113Z,11.37
2019-05-22T09:47:42.550Z,8.33
2019-05-22T09:50:13.086Z,6.73
2019-05-22T09:52:56.343Z,8.30
2019-05-22T09:55:13.693Z,11.47
2019-05-22T09:57:42.361Z,7.83
2019-05-22T10:00:12.315Z,11.97
2019-05-22T10:02:41.713Z,6.50
2019-05-22T10:05:11.222Z,4.53
2019-05-22T10:07:57.195Z,12.27
2019-05-22T10:10:12.152Z,5.53
2019-05-22T10:12:40.649Z,4.80
2019-05-22T10:15:10.061Z,4.70
2019-05-22T10:17:42.277Z,4.90
2019-05-22T10:20:11.086Z,4.87
2019-05-22T10:22:40.126Z,4.90
2019-05-22T10:25:15.822Z,5.07
2019-05-22T10:27:40.029Z,8.33
2019-05-22T10:30:13.811Z,5.20
2019-05-22T10:32:42.389Z,4.83
2019-05-22T10:35:12.356Z,4.43
2019-05-22T10:37:41.521Z,5.27
2019-05-22T10:40:12.370Z,4.43
2019-05-22T10:42:44.684Z,5.33
2019-05-22T10:45:11.450Z,4.90
2019-05-22T10:47:40.283Z,5.37
2019-05-22T10:50:09.249Z,5.43
2019-05-22T10:52:37.682Z,6.03
2019-05-22T10:55:08.074Z,5.60
2019-05-22T10:57:40.426Z,5.83
2019-05-22T11:00:12.901Z,7.90
2019-05-22T11:02:41.748Z,6.13
2019-05-22T11:05:10.502Z,5.77
2019-05-22T11:07:39.406Z,6.03
2019-05-22T11:10:09.683Z,6.87
2019-05-22T11:12:38.208Z,6.60
2019-05-22T11:15:09.119Z,5.77
2019-05-22T11:17:38.188Z,5.97
2019-05-22T11:20:08.449Z,6.60
2019-05-22T11:22:37.225Z,6.20
2019-05-22T11:25:09.954Z,6.37
2019-05-22T11:27:39.339Z,6.80
2019-05-22T11:30:10.831Z,6.77
2019-05-22T11:32:40.032Z,7.20
2019-05-22T11:35:10.215Z,7.70
2019-05-22T11:37:39.373Z,7.33
2019-05-22T11:40:08.631Z,7.77
2019-05-22T11:42:38.476Z,8.10
2019-05-22T11:45:11.717Z,8.23
2019-05-22T11:47:41.396Z,8.30
2019-05-22T11:50:15.653Z,8.03
2019-05-22T11:52:44.263Z,8.33
2019-05-22T11:55:13.467Z,8.43
2019-05-22T11:57:46.011Z,8.50
2019-05-22T12:00:16.367Z,8.93
2019-05-22T12:02:45.364Z,8.87
2019-05-22T12:05:15.342Z,12.57
2019-05-22T12:07:44.596Z,16.40
2019-05-22T12:10:14.772Z,13.13
2019-05-22T12:12:44.517Z,12.90
2019-05-22T12:15:14.006Z,10.90
2019-05-22T12:17:42.739Z,11.67
2019-05-22T12:20:14.254Z,9.87
2019-05-22T12:22:43.032Z,9.90
2019-05-22T12:25:14.411Z,9.60
2019-05-22T12:27:42.833Z,9.53
2019-05-22T12:30:12.830Z,9.80
2019-05-22T12:32:41.794Z,11.03
2019-05-22T12:35:13.297Z,9.63
2019-05-22T12:37:41.897Z,10.17
2019-05-22T12:40:13.204Z,11.57
2019-05-22T12:42:41.780Z,12.13
2019-05-22T12:45:11.877Z,12.33
2019-05-22T12:47:41.104Z,10.53
2019-05-22T12:50:11.504Z,10.93
2019-05-22T12:52:40.011Z,11.23
2019-05-22T12:55:08.715Z,11.63
2019-05-22T12:57:37.547Z,12.07
2019-05-22T13:00:08.221Z,11.50
2019-05-22T13:02:42.215Z,10.90
2019-05-22T13:05:08.534Z,13.33
2019-05-22T13:07:37.703Z,12.73
2019-05-22T13:10:08.023Z,12.70
2019-05-22T13:12:37.117Z,12.57
2019-05-22T13:15:10.687Z,12.13
2019-05-22T13:17:39.492Z,12.20
2019-05-22T13:20:12.909Z,13.13
2019-05-22T13:22:44.445Z,12.43
2019-05-22T13:25:15.375Z,13.33
2019-05-22T13:27:45.286Z,13.20
2019-05-22T13:30:15.893Z,13.57
2019-05-22T13:32:45.242Z,13.10
2019-05-22T13:35:15.733Z,12.97
2019-05-22T13:37:44.872Z,13.17
2019-05-22T13:40:27.065Z,14.00
2019-05-22T13:42:44.601Z,13.20
2019-05-22T13:45:27.896Z,14.03
2019-05-22T13:47:44.609Z,13.03
2019-05-22T13:50:15.957Z,14.97
2019-05-22T13:52:45.527Z,14.33
2019-05-22T13:55:14.380Z,14.03
2019-05-22T13:57:42.834Z,13.80
2019-05-22T14:00:15.330Z,14.67
2019-05-22T14:02:43.781Z,15.40
2019-05-22T14:05:14.000Z,14.20
2019-05-22T14:07:42.625Z,16.27
2019-05-22T14:10:11.345Z,13.87
2019-05-22T14:12:39.971Z,15.00
2019-05-22T14:15:08.840Z,13.40
2019-05-22T14:17:37.510Z,13.37
2019-05-22T14:20:07.770Z,13.80
2019-05-22T14:22:36.213Z,13.73
2019-05-22T14:25:07.832Z,13.10
2019-05-22T14:27:41.071Z,13.40
2019-05-22T14:30:07.860Z,13.57
2019-05-22T14:32:37.091Z,12.70
2019-05-22T14:35:06.656Z,13.17
2019-05-22T14:37:35.240Z,12.70
2019-05-22T14:40:06.734Z,12.43
2019-05-22T14:42:35.247Z,13.13
2019-05-22T14:45:05.098Z,13.87
2019-05-22T14:47:33.623Z,13.00
2019-05-22T14:50:03.022Z,12.20
2019-05-22T14:52:32.857Z,13.57
2019-05-22T14:55:01.515Z,12.03
2019-05-22T14:57:30.451Z,12.53
2019-05-22T14:59:59.021Z,12.53
2019-05-22T15:02:27.726Z,12.80
2019-05-22T15:04:57.265Z,13.60
2019-05-22T15:07:25.866Z,13.70
2019-05-22T15:09:54.383Z,13.03
2019-05-22T15:12:22.894Z,13.27
2019-05-22T15:14:51.396Z,12.80
2019-05-22T15:17:31.581Z,12.23
2019-05-22T15:19:50.554Z,12.43
2019-05-22T15:22:19.441Z,11.67
2019-05-22T15:24:48.270Z,12.03
2019-05-22T15:27:17.520Z,13.00
2019-05-22T15:29:46.034Z,12.73
2019-05-22T15:32:16.245Z,13.13
2019-05-22T15:34:44.848Z,13.23
2019-05-22T15:37:14.869Z,13.83
2019-05-22T15:39:43.332Z,13.63
2019-05-22T15:42:15.212Z,12.47
2019-05-22T15:44:44.323Z,12.90
2019-05-22T15:47:12.819Z,13.27
2019-05-22T15:49:44.313Z,12.50
2019-05-22T15:52:15.158Z,11.97
2019-05-22T15:54:45.648Z,10.77
2019-05-22T15:57:16.227Z,11.40
2019-05-22T15:59:44.965Z,12.03
2019-05-22T16:02:14.925Z,10.47
2019-05-22T16:04:43.400Z,10.67
2019-05-22T16:07:12.600Z,10.53
2019-05-22T16:09:43.151Z,10.10
2019-05-22T16:12:12.220Z,10.50
2019-05-22T16:14:41.412Z,11.43
2019-05-22T16:17:10.445Z,10.80
2019-05-22T16:19:40.077Z,10.63
2019-05-22T16:22:10.073Z,11.17
2019-05-22T16:24:42.250Z,10.60
2019-05-22T16:27:12.705Z,9.93
2019-05-22T16:29:41.802Z,10.17
2019-05-22T16:32:12.203Z,11.03
2019-05-22T16:34:41.383Z,11.30
2019-05-22T16:37:10.009Z,10.23
2019-05-22T16:39:39.885Z,10.50
2019-05-22T16:42:09.989Z,10.33
2019-05-22T16:44:38.650Z,9.63
2019-05-22T16:47:08.809Z,10.43
2019-05-22T16:49:37.757Z,9.93
2019-05-22T16:52:08.931Z,8.87
2019-05-22T16:54:39.696Z,9.20
2019-05-22T16:57:09.462Z,8.63
2019-05-22T16:59:40.296Z,8.53
2019-05-22T17:02:12.100Z,8.50
2019-05-22T17:04:40.835Z,8.30
2019-05-22T17:07:09.364Z,8.40
2019-05-22T17:09:39.042Z,7.60
2019-05-22T17:12:09.094Z,7.77
2019-05-22T17:14:37.529Z,7.70
2019-05-22T17:17:07.375Z,7.30
2019-05-22T17:19:36.029Z,6.70
2019-05-22T17:22:06.420Z,7.73
2019-05-22T17:24:35.006Z,7.07
2019-05-22T17:27:04.350Z,7.27
2019-05-22T17:29:34.171Z,6.03
2019-05-22T17:32:04.058Z,7.00
2019-05-22T17:34:33.666Z,6.23
2019-05-22T17:37:09.574Z,10.93
2019-05-22T17:39:40.945Z,5.93
2019-05-22T17:42:12.806Z,6.37
2019-05-22T17:44:45.416Z,6.10
2019-05-22T17:47:14.576Z,6.27
2019-05-22T17:49:43.284Z,5.97
2019-05-22T17:52:13.347Z,5.73
2019-05-22T17:54:42.139Z,6.00
2019-05-22T17:57:11.507Z,5.37
2019-05-22T17:59:40.017Z,6.10
2019-05-22T18:02:10.187Z,5.60
2019-05-22T18:04:38.696Z,5.97
2019-05-22T18:07:07.193Z,6.10
2019-05-22T18:09:36.118Z,6.10
2019-05-22T18:12:06.373Z,5.80
2019-05-22T18:14:35.365Z,6.07
2019-05-22T18:17:04.164Z,6.57
2019-05-22T18:19:33.105Z,6.53
2019-05-22T18:22:01.645Z,6.33
2019-05-22T18:24:30.073Z,6.20
2019-05-22T18:26:58.535Z,6.77
2019-05-22T18:29:27.422Z,6.73
2019-05-22T18:31:56.126Z,5.87
2019-05-22T18:34:24.578Z,5.97
2019-05-22T18:36:53.198Z,6.07
2019-05-22T18:39:22.593Z,5.63
2019-05-22T18:41:51.032Z,6.03
2019-05-22T18:44:19.497Z,5.80
2019-05-22T18:46:48.111Z,5.40
2019-05-22T18:49:16.563Z,5.40
2019-05-22T18:51:45.591Z,5.80
2019-05-22T18:54:14.120Z,5.70
2019-05-22T18:56:42.627Z,5.90
2019-05-22T18:59:11.813Z,5.57
2019-05-22T19:01:40.237Z,4.93
2019-05-22T19:04:08.982Z,5.00
2019-05-22T19:06:37.401Z,5.07
2019-05-22T19:09:08.875Z,5.43
2019-05-22T19:11:37.604Z,4.70
2019-05-22T19:14:06.539Z,5.20
2019-05-22T19:16:35.372Z,4.63
2019-05-22T19:19:06.617Z,3.93
2019-05-22T19:21:35.147Z,4.33
2019-05-22T19:24:05.603Z,4.77
2019-05-22T19:26:34.044Z,4.67
2019-05-22T19:29:04.433Z,4.20
2019-05-22T19:31:33.171Z,4.00
2019-05-22T19:34:01.642Z,4.27
2019-05-22T19:36:30.152Z,4.17
2019-05-22T19:38:58.665Z,4.17
2019-05-22T19:41:27.112Z,3.90
2019-05-22T19:43:55.701Z,4.00
2019-05-22T19:46:24.483Z,3.60
2019-05-22T19:48:52.907Z,3.90
2019-05-22T19:51:21.374Z,3.73
2019-05-22T19:53:50.078Z,4.10
2019-05-22T19:56:18.704Z,3.90
2019-05-22T19:58:47.143Z,4.20
2019-05-22T20:01:15.830Z,4.27
2019-05-22T20:03:44.346Z,3.87
2019-05-22T20:06:12.804Z,4.00
2019-05-22T20:08:41.578Z,3.57
2019-05-22T20:11:10.326Z,3.50
2019-05-22T20:13:39.440Z,4.20
2019-05-22T20:16:09.174Z,4.07
2019-05-22T20:18:38.065Z,4.00
2019-05-22T20:21:06.589Z,4.03
2019-05-22T20:23:36.801Z,4.17
2019-05-22T20:26:05.497Z,4.17
2019-05-22T20:28:34.182Z,3.60
2019-05-22T20:31:02.726Z,4.20
2019-05-22T20:33:31.795Z,3.97
2019-05-22T20:36:00.318Z,4.10
2019-05-22T20:38:29.017Z,4.00
2019-05-22T20:40:57.932Z,4.03
2019-05-22T20:43:27.505Z,3.87
2019-05-22T20:45:56.729Z,3.97
2019-05-22T20:48:27.841Z,4.13
2019-05-22T20:50:58.542Z,4.23
2019-05-22T20:53:28.521Z,4.43
2019-05-22T20:55:57.068Z,4.40
2019-05-22T20:58:27.412Z,3.80
2019-05-22T21:00:55.870Z,4.67
2019-05-22T21:03:25.786Z,4.40
2019-05-22T21:05:54.385Z,4.37
2019-05-22T21:08:25.098Z,3.97
2019-05-22T21:10:54.264Z,4.00
2019-05-22T21:13:23.796Z,4.20
2019-05-22T21:15:53.936Z,4.50
2019-05-22T21:18:24.261Z,3.83
2019-05-22T21:20:55.192Z,4.10
2019-05-22T21:23:23.802Z,4.13
2019-05-22T21:25:52.304Z,3.83
2019-05-22T21:28:21.327Z,3.93
2019-05-22T21:30:51.798Z,3.87
2019-05-22T21:33:20.430Z,3.70
2019-05-22T21:35:49.029Z,3.60
2019-05-22T21:38:18.011Z,4.03
2019-05-22T21:40:47.588Z,3.90
2019-05-22T21:43:16.889Z,3.50
2019-05-22T21:45:45.398Z,3.53
2019-05-22T21:48:13.910Z,3.83
2019-05-22T21:50:42.729Z,3.23
2019-05-22T21:53:12.501Z,3.50
2019-05-22T21:55:45.402Z,3.90
2019-05-22T21:58:12.230Z,4.03
2019-05-22T22:00:45.405Z,3.50
2019-05-22T22:03:19.266Z,3.83
2019-05-22T22:05:48.064Z,4.17
2019-05-22T22:08:16.693Z,3.60
2019-05-22T22:10:45.598Z,3.77
2019-05-22T22:13:14.283Z,3.60
2019-05-22T22:15:45.470Z,3.67
2019-05-22T22:18:14.253Z,4.00
2019-05-22T22:20:43.516Z,3.90
2019-05-22T22:23:15.184Z,4.03
2019-05-22T22:25:43.958Z,3.80
2019-05-22T22:28:13.534Z,3.90
2019-05-22T22:30:58.833Z,4.43
2019-05-22T22:33:31.694Z,3.70
2019-05-22T22:36:02.025Z,3.67
2019-05-22T22:38:31.726Z,3.67
2019-05-22T22:41:00.869Z,3.47
2019-05-22T22:43:32.796Z,3.37
2019-05-22T22:46:19.554Z,4.07
2019-05-22T22:48:50.711Z,3.87
2019-05-22T22:51:20.157Z,3.57
2019-05-22T22:53:49.992Z,3.80
2019-05-22T22:56:18.787Z,3.63
2019-05-22T22:58:48.454Z,4.20
2019-05-22T23:01:23.456Z,4.30
2019-05-22T23:03:54.877Z,3.60
2019-05-22T23:06:23.686Z,3.70
2019-05-22T23:08:52.207Z,3.93
2019-05-22T23:11:22.456Z,3.90
2019-05-22T23:13:52.451Z,3.60
2019-05-22T23:16:22.889Z,3.73
2019-05-22T23:19:04.282Z,4.13
2019-05-22T23:21:33.406Z,4.10
2019-05-22T23:24:00.773Z,4.07
2019-05-22T23:26:30.041Z,4.17
2019-05-22T23:28:58.518Z,3.93
2019-05-22T23:31:27.641Z,4.27
2019-05-22T23:33:57.094Z,4.20
2019-05-22T23:36:26.167Z,4.97
2019-05-22T23:38:54.955Z,4.93
2019-05-22T23:41:26.127Z,4.43
2019-05-22T23:43:55.481Z,4.13
2019-05-22T23:46:27.726Z,4.00
2019-05-22T23:48:57.241Z,3.97
2019-05-22T23:51:25.812Z,4.00
2019-05-22T23:53:54.726Z,4.23
2019-05-22T23:56:23.163Z,4.10
2019-05-22T23:58:53.463Z,3.97
